Time;durP1;ratioP1;P1;durP2;ratioP2;P2;SDS_P1;SDS_P2;PMS_P1;PMS_P2;Temp;Humidity;BMP_temperature;BMP_pressure;BME280_temperature;BME280_humidity;BME280_pressure;Samples;Min_cycle;Max_cycle;Signal;HPM_P1;HPM_P2
2024/01/25 00:00:27;;;;;;;34.92;32.53;;;;;;;;;;5035248;28;20519;-57
2024/01/25 00:02:52;;;;;;;31.00;29.30;;;;;;;;;;5031152;28;20041;-67
2024/01/25 00:05:17;;;;;;;31.35;29.73;;;;;;;;;;5030026;28;20387;-55
2024/01/25 00:07:49;;;;;;;30.60;28.00;;;;;;;;;;5027794;28;20061;-68
2024/01/25 00:10:16;;;;;;;30.48;28.77;;;;;;;;;;5031952;28;20123;-68
2024/01/25 00:12:42;;;;;;;31.98;30.17;;;;;;;;;;5032656;28;20070;-57
2024/01/25 00:15:09;;;;;;;29.65;27.75;;;;;;;;;;5030995;28;20537;-57
2024/01/25 00:17:34;;;;;;;29.13;27.13;;;;;;;;;;5031933;28;20067;-56
2024/01/25 00:19:59;;;;;;;30.67;28.13;;;;;;;;;;5032707;28;20024;-55
2024/01/25 00:22:24;;;;;;;34.00;31.38;;;;;;;;;;5031288;28;20055;-58
2024/01/25 00:24:50;;;;;;;30.52;28.83;;;;;;;;;;5030591;28;20230;-68
2024/01/25 00:27:15;;;;;;;27.42;26.00;;;;;;;;;;5031518;28;20064;-67
2024/01/25 00:29:41;;;;;;;29.98;28.30;;;;;;;;;;5036631;28;20460;-68
2024/01/25 00:32:06;;;;;;;28.95;27.13;;;;;;;;;;5035310;28;20064;-68
2024/01/25 00:34:32;;;;;;;31.42;29.73;;;;;;;;;;5036487;28;20032;-68
2024/01/25 00:36:58;;;;;;;29.50;27.70;;;;;;;;;;5034778;28;20068;-68
2024/01/25 00:39:23;;;;;;;29.48;27.90;;;;;;;;;;5035720;28;20378;-56
2024/01/25 00:41:51;;;;;;;31.90;29.55;;;;;;;;;;5035266;28;20042;-57
2024/01/25 00:44:17;;;;;;;31.80;28.88;;;;;;;;;;5034367;28;20099;-57
2024/01/25 00:46:45;;;;;;;32.75;30.77;;;;;;;;;;5038261;28;20025;-56
2024/01/25 00:49:11;;;;;;;30.33;28.08;;;;;;;;;;5035859;28;20044;-58
2024/01/25 00:51:36;;;;;;;30.80;28.15;;;;;;;;;;5035959;28;20103;-56
2024/01/25 00:54:02;;;;;;;27.88;26.25;;;;;;;;;;5036132;28;20044;-57
2024/01/25 00:56:28;;;;;;;31.67;30.00;;;;;;;;;;5035371;28;20555;-57
2024/01/25 00:58:53;;;;;;;28.40;26.90;;;;;;;;;;5034677;28;20076;-57
2024/01/25 01:01:21;;;;;;;28.63;27.02;;;;;;;;;;5036286;28;20044;-55
2024/01/25 01:03:52;;;;;;;29.88;28.23;;;;;;;;;;5033290;28;20818;-57
2024/01/25 01:06:19;;;;;;;27.55;26.00;;;;;;;;;;5036381;28;20029;-57
2024/01/25 01:08:44;;;;;;;29.45;27.45;;;;;;;;;;5034717;28;20036;-53
2024/01/25 01:11:10;;;;;;;28.25;26.45;;;;;;;;;;5035522;28;20033;-56
2024/01/25 01:13:35;;;;;;;28.50;26.80;;;;;;;;;;5034866;28;20544;-58
2024/01/25 01:16:00;;;;;;;28.83;27.23;;;;;;;;;;5036092;28;20036;-57
2024/01/25 01:18:26;;;;;;;28.30;26.75;;;;;;;;;;5033768;28;20033;-59
2024/01/25 01:20:51;;;;;;;28.27;26.52;;;;;;;;;;5035193;28;20030;-58
2024/01/25 01:23:16;;;;;;;28.88;26.73;;;;;;;;;;5036015;28;20083;-57
2024/01/25 01:25:42;;;;;;;27.23;25.73;;;;;;;;;;5031818;28;20033;-57
2024/01/25 01:28:07;;;;;;;29.25;27.25;;;;;;;;;;5035724;28;20527;-57
2024/01/25 01:30:32;;;;;;;29.10;27.40;;;;;;;;;;5034382;28;20025;-58
2024/01/25 01:32:58;;;;;;;29.02;27.42;;;;;;;;;;5033828;28;20044;-57
2024/01/25 01:35:23;;;;;;;30.70;29.00;;;;;;;;;;5033133;28;20049;-57
2024/01/25 01:37:48;;;;;;;29.65;27.95;;;;;;;;;;5035502;28;20029;-58
2024/01/25 01:40:14;;;;;;;31.10;29.13;;;;;;;;;;5035169;28;20041;-58
2024/01/25 01:42:40;;;;;;;27.55;26.05;;;;;;;;;;5032942;28;20049;-58
2024/01/25 01:45:06;;;;;;;31.65;29.67;;;;;;;;;;5036222;28;20041;-58
2024/01/25 01:47:31;;;;;;;30.65;28.95;;;;;;;;;;5036791;28;20123;-57
2024/01/25 01:49:57;;;;;;;29.55;28.00;;;;;;;;;;5035641;28;20094;-58
2024/01/25 01:52:23;;;;;;;28.83;27.13;;;;;;;;;;5032716;28;20119;-57
2024/01/25 01:54:48;;;;;;;28.38;26.85;;;;;;;;;;5031808;28;20038;-58
2024/01/25 01:57:14;;;;;;;30.42;28.65;;;;;;;;;;5036713;28;20503;-57
2024/01/25 01:59:40;;;;;;;29.20;27.65;;;;;;;;;;5036677;28;20463;-58
2024/01/25 02:02:07;;;;;;;30.77;28.92;;;;;;;;;;5033694;28;20053;-58
2024/01/25 02:04:32;;;;;;;28.83;27.25;;;;;;;;;;5034036;28;20099;-58
2024/01/25 02:06:57;;;;;;;29.67;28.02;;;;;;;;;;5033003;28;20430;-58
2024/01/25 02:09:23;;;;;;;29.02;27.52;;;;;;;;;;5032897;28;20591;-58
2024/01/25 02:11:58;;;;;;;28.65;26.98;;;;;;;;;;5033088;28;20033;-57
2024/01/25 02:14:24;;;;;;;29.25;27.10;;;;;;;;;;5033845;28;20057;-58
2024/01/25 02:16:49;;;;;;;30.38;28.48;;;;;;;;;;5037553;28;20451;-58
2024/01/25 02:19:14;;;;;;;29.92;28.02;;;;;;;;;;5035910;28;20048;-58
2024/01/25 02:21:39;;;;;;;30.20;28.60;;;;;;;;;;5032832;28;20029;-58
2024/01/25 02:24:05;;;;;;;29.73;27.88;;;;;;;;;;5035949;28;20036;-57
2024/01/25 02:26:31;;;;;;;29.38;27.67;;;;;;;;;;5033548;28;20503;-69
2024/01/25 02:28:56;;;;;;;29.27;27.55;;;;;;;;;;5031829;28;20029;-68
2024/01/25 02:31:21;;;;;;;30.48;28.40;;;;;;;;;;5033428;28;20029;-58
2024/01/25 02:33:47;;;;;;;28.98;27.40;;;;;;;;;;5031031;28;20087;-57
2024/01/25 02:36:12;;;;;;;29.75;27.45;;;;;;;;;;5035609;28;20078;-57
2024/01/25 02:38:37;;;;;;;29.08;27.40;;;;;;;;;;5033645;28;20033;-56
2024/01/25 02:41:05;;;;;;;30.98;28.52;;;;;;;;;;5032974;28;20032;-56
2024/01/25 02:43:30;;;;;;;28.92;27.30;;;;;;;;;;5034105;28;20043;-56
2024/01/25 02:45:55;;;;;;;30.33;28.73;;;;;;;;;;5030806;28;20387;-56
2024/01/25 02:48:21;;;;;;;27.88;26.23;;;;;;;;;;5033385;28;20437;-57
2024/01/25 02:50:46;;;;;;;29.27;27.75;;;;;;;;;;5032823;28;20045;-57
2024/01/25 02:53:11;;;;;;;29.33;27.75;;;;;;;;;;5037340;28;20040;-56
2024/01/25 02:55:37;;;;;;;30.83;28.15;;;;;;;;;;5035513;28;20037;-56
2024/01/25 02:58:02;;;;;;;30.38;28.40;;;;;;;;;;5032318;28;20041;-56
2024/01/25 03:00:28;;;;;;;30.67;28.23;;;;;;;;;;5034389;28;20117;-57
2024/01/25 03:02:53;;;;;;;29.23;27.63;;;;;;;;;;5032063;28;20025;-58
2024/01/25 03:05:18;;;;;;;29.02;27.20;;;;;;;;;;5031451;28;20100;-58
2024/01/25 03:07:44;;;;;;;28.88;26.88;;;;;;;;;;5036885;28;20044;-57
2024/01/25 03:10:09;;;;;;;28.95;27.30;;;;;;;;;;5033944;28;20045;-54
2024/01/25 03:12:34;;;;;;;29.73;28.00;;;;;;;;;;5035594;28;20714;-56
2024/01/25 03:15:00;;;;;;;26.63;25.10;;;;;;;;;;5033054;28;20368;-56
2024/01/25 03:17:25;;;;;;;27.98;26.20;;;;;;;;;;5032228;28;20033;-57
2024/01/25 03:19:50;;;;;;;25.42;24.02;;;;;;;;;;5032692;28;20048;-57
2024/01/25 03:22:16;;;;;;;27.20;25.70;;;;;;;;;;5036008;28;20471;-56
2024/01/25 03:24:41;;;;;;;26.85;24.92;;;;;;;;;;5033775;28;20652;-52
2024/01/25 03:27:13;;;;;;;27.10;25.48;;;;;;;;;;5033277;28;20059;-56
2024/01/25 03:29:41;;;;;;;26.67;24.58;;;;;;;;;;5036071;28;20108;-55
2024/01/25 03:32:06;;;;;;;27.15;25.20;;;;;;;;;;5033701;28;20045;-57
2024/01/25 03:34:31;;;;;;;25.10;23.73;;;;;;;;;;5031353;28;20045;-56
2024/01/25 03:36:57;;;;;;;25.63;24.23;;;;;;;;;;5034815;28;20108;-56
2024/01/25 03:39:22;;;;;;;24.60;23.30;;;;;;;;;;5031816;28;20044;-56
2024/01/25 03:41:47;;;;;;;26.48;24.73;;;;;;;;;;5034368;28;20032;-57
2024/01/25 03:44:13;;;;;;;28.33;26.05;;;;;;;;;;5033832;28;20032;-53
2024/01/25 03:46:38;;;;;;;26.95;25.10;;;;;;;;;;5032487;28;20029;-56
2024/01/25 03:49:04;;;;;;;23.40;22.10;;;;;;;;;;5030538;28;20044;-57
2024/01/25 03:51:29;;;;;;;27.92;25.67;;;;;;;;;;5034740;28;20041;-55
2024/01/25 03:53:55;;;;;;;25.35;23.75;;;;;;;;;;5029571;28;20029;-57
2024/01/25 03:56:22;;;;;;;25.77;24.30;;;;;;;;;;5028980;28;20592;-55
2024/01/25 03:58:48;;;;;;;25.17;23.73;;;;;;;;;;5032261;28;20034;-57
2024/01/25 04:01:13;;;;;;;27.58;25.30;;;;;;;;;;5032220;28;20051;-56
2024/01/25 04:03:39;;;;;;;26.35;24.33;;;;;;;;;;5033021;28;20893;-54
2024/01/25 04:06:04;;;;;;;27.25;25.02;;;;;;;;;;5032613;28;20451;-56
2024/01/25 04:08:29;;;;;;;24.60;23.30;;;;;;;;;;5031382;28;20041;-56
2024/01/25 04:10:55;;;;;;;25.13;23.73;;;;;;;;;;5032374;28;20042;-55
2024/01/25 04:13:20;;;;;;;24.50;23.15;;;;;;;;;;5030455;28;20189;-57
2024/01/25 04:15:46;;;;;;;26.02;24.58;;;;;;;;;;5032141;28;20029;-56
2024/01/25 04:18:11;;;;;;;26.33;24.88;;;;;;;;;;5030828;28;20043;-57
2024/01/25 04:20:36;;;;;;;25.40;23.92;;;;;;;;;;5032719;28;20021;-56
2024/01/25 04:23:07;;;;;;;27.25;25.65;;;;;;;;;;5034560;28;20128;-56
2024/01/25 04:25:33;;;;;;;;;;;;;;;;;;5028465;28;20034;-56
2024/01/25 04:27:58;;;;;;;24.75;23.30;;;;;;;;;;5030290;28;19917;-55
2024/01/25 04:30:23;;;;;;;27.15;25.70;;;;;;;;;;5032205;28;20156;-57
2024/01/25 04:32:49;;;;;;;25.40;24.00;;;;;;;;;;5027669;28;20458;-56
2024/01/25 04:35:14;;;;;;;26.98;25.40;;;;;;;;;;5032188;28;20041;-56
2024/01/25 04:37:39;;;;;;;26.20;24.75;;;;;;;;;;5032350;28;20047;-56
2024/01/25 04:40:06;;;;;;;27.02;25.40;;;;;;;;;;5031011;28;20116;-58
2024/01/25 04:42:31;;;;;;;26.92;25.33;;;;;;;;;;5034349;28;20398;-58
2024/01/25 04:44:56;;;;;;;25.00;23.50;;;;;;;;;;5029137;28;20055;-58
2024/01/25 04:47:22;;;;;;;25.15;23.65;;;;;;;;;;5032026;28;20297;-58
2024/01/25 04:49:47;;;;;;;25.13;23.60;;;;;;;;;;5030800;28;20466;-57
2024/01/25 04:52:13;;;;;;;25.08;23.13;;;;;;;;;;5034142;28;20510;-58
2024/01/25 04:54:38;;;;;;;24.98;23.58;;;;;;;;;;5031197;28;20346;-56
2024/01/25 04:57:06;;;;;;;27.30;24.98;;;;;;;;;;5033903;28;20060;-58
2024/01/25 04:59:36;;;;;;;25.90;24.05;;;;;;;;;;5032167;28;20029;-57
2024/01/25 05:02:01;;;;;;;26.02;24.13;;;;;;;;;;5031806;28;20028;-57
2024/01/25 05:04:29;;;;;;;25.88;24.20;;;;;;;;;;5031625;28;20109;-58
2024/01/25 05:06:54;;;;;;;24.38;23.02;;;;;;;;;;5031953;28;20036;-58
2024/01/25 05:09:20;;;;;;;26.33;24.65;;;;;;;;;;5031155;28;20032;-57
2024/01/25 05:11:46;;;;;;;23.77;22.48;;;;;;;;;;5032712;28;20173;-56
2024/01/25 05:14:11;;;;;;;25.23;23.85;;;;;;;;;;5031630;28;20043;-57
2024/01/25 05:16:36;;;;;;;25.77;24.27;;;;;;;;;;5031563;28;20033;-58
2024/01/25 05:19:02;;;;;;;24.58;23.27;;;;;;;;;;5033816;28;20041;-57
2024/01/25 05:21:27;;;;;;;25.95;24.25;;;;;;;;;;5035230;28;20029;-56
2024/01/25 05:23:53;;;;;;;29.95;25.20;;;;;;;;;;5034891;28;20528;-58
2024/01/25 05:26:18;;;;;;;26.75;25.25;;;;;;;;;;5033159;28;20049;-58
2024/01/25 05:28:44;;;;;;;25.85;24.38;;;;;;;;;;5039982;28;20041;-58
2024/01/25 05:31:12;;;;;;;25.52;24.13;;;;;;;;;;5037272;28;20187;-58
2024/01/25 05:33:41;;;;;;;25.20;23.83;;;;;;;;;;5034131;28;20029;-57
2024/01/25 05:36:07;;;;;;;26.38;24.90;;;;;;;;;;5034236;28;20049;-57
2024/01/25 05:38:32;;;;;;;25.10;23.80;;;;;;;;;;5035266;28;20421;-57
2024/01/25 05:40:58;;;;;;;26.35;24.77;;;;;;;;;;5035061;28;20041;-57
2024/01/25 05:43:24;;;;;;;26.75;25.02;;;;;;;;;;5038136;28;20033;-56
2024/01/25 05:45:49;;;;;;;24.35;22.95;;;;;;;;;;5035202;28;20040;-56
2024/01/25 05:48:15;;;;;;;26.95;25.10;;;;;;;;;;5036348;28;20354;-57
2024/01/25 05:50:40;;;;;;;24.33;23.02;;;;;;;;;;5034920;28;20038;-57
2024/01/25 05:53:05;;;;;;;26.00;24.52;;;;;;;;;;5034601;28;20094;-55
2024/01/25 05:55:31;;;;;;;25.85;24.10;;;;;;;;;;5033368;28;20037;-57
2024/01/25 05:57:56;;;;;;;25.40;24.00;;;;;;;;;;5035803;28;20066;-55
2024/01/25 06:00:22;;;;;;;24.45;22.95;;;;;;;;;;5016045;28;20029;-56
2024/01/25 06:02:47;;;;;;;25.58;24.08;;;;;;;;;;5031570;28;20048;-57
2024/01/25 06:05:12;;;;;;;25.77;24.15;;;;;;;;;;5030954;28;20037;-57
2024/01/25 06:07:38;;;;;;;23.33;22.08;;;;;;;;;;5030866;28;20037;-56
2024/01/25 06:10:03;;;;;;;25.65;23.80;;;;;;;;;;5033754;28;20115;-58
2024/01/25 06:12:29;;;;;;;25.33;23.63;;;;;;;;;;5034632;28;20044;-57
2024/01/25 06:14:54;;;;;;;26.20;24.70;;;;;;;;;;5033236;28;20037;-57
2024/01/25 06:17:19;;;;;;;25.00;23.50;;;;;;;;;;5033484;28;20033;-58
2024/01/25 06:19:45;;;;;;;26.00;24.40;;;;;;;;;;5034487;28;20112;-56
2024/01/25 06:22:12;;;;;;;25.50;24.05;;;;;;;;;;5036344;28;20176;-58
2024/01/25 06:24:38;;;;;;;27.17;25.38;;;;;;;;;;5033922;28;20034;-58
2024/01/25 06:27:03;;;;;;;27.35;25.02;;;;;;;;;;5033409;28;20037;-58
2024/01/25 06:29:29;;;;;;;24.92;23.17;;;;;;;;;;5029904;28;20045;-55
2024/01/25 06:31:54;;;;;;;24.85;23.45;;;;;;;;;;5033184;28;20036;-57
2024/01/25 06:34:19;;;;;;;25.60;22.42;;;;;;;;;;5030555;28;20490;-57
2024/01/25 06:36:45;;;;;;;26.40;24.23;;;;;;;;;;5028206;28;20477;-55
2024/01/25 06:39:10;;;;;;;26.63;25.13;;;;;;;;;;5032638;28;20051;-57
2024/01/25 06:41:35;;;;;;;28.60;24.25;;;;;;;;;;5032269;28;20048;-69
2024/01/25 06:44:01;;;;;;;25.25;23.85;;;;;;;;;;5027541;28;20048;-56
2024/01/25 06:46:26;;;;;;;26.02;24.63;;;;;;;;;;5030549;28;20021;-56
2024/01/25 06:48:52;;;;;;;27.45;25.80;;;;;;;;;;5032120;28;20029;-54
2024/01/25 06:51:17;;;;;;;29.33;27.17;;;;;;;;;;5033815;28;20039;-57
2024/01/25 06:53:42;;;;;;;27.65;26.05;;;;;;;;;;5033648;28;20071;-70
2024/01/25 06:56:08;;;;;;;29.80;27.35;;;;;;;;;;5032722;28;20032;-70
2024/01/25 06:58:33;;;;;;;30.73;28.65;;;;;;;;;;5033302;28;20108;-70
2024/01/25 07:00:59;;;;;;;31.42;29.17;;;;;;;;;;5034766;28;20031;-70
2024/01/25 07:03:24;;;;;;;28.77;27.23;;;;;;;;;;5031104;28;20099;-70
2024/01/25 07:05:50;;;;;;;30.33;28.73;;;;;;;;;;5031875;28;20673;-70
2024/01/25 07:08:15;;;;;;;30.40;28.70;;;;;;;;;;5031148;28;20069;-69
2024/01/25 07:10:41;;;;;;;32.75;30.95;;;;;;;;;;5031530;28;20463;-69
2024/01/25 07:13:07;;;;;;;34.65;32.35;;;;;;;;;;5033202;28;20119;-69
2024/01/25 07:15:32;;;;;;;30.95;29.35;;;;;;;;;;5029058;28;20026;-69
2024/01/25 07:17:57;;;;;;;36.75;33.30;;;;;;;;;;5032092;28;20422;-69
2024/01/25 07:20:23;;;;;;;36.42;34.05;;;;;;;;;;5030779;28;20030;-69
2024/01/25 07:22:48;;;;;;;35.60;33.20;;;;;;;;;;5032430;28;20423;-69
2024/01/25 07:25:14;;;;;;;32.70;31.00;;;;;;;;;;5028897;28;20144;-69
2024/01/25 07:27:39;;;;;;;35.35;33.33;;;;;;;;;;5030984;28;20033;-69
2024/01/25 07:30:05;;;;;;;35.35;33.55;;;;;;;;;;5034443;28;20053;-69
2024/01/25 07:32:32;;;;;;;33.38;31.50;;;;;;;;;;5028695;28;20025;-69
2024/01/25 07:34:57;;;;;;;34.72;32.50;;;;;;;;;;5034951;28;20039;-70
2024/01/25 07:37:23;;;;;;;32.92;31.13;;;;;;;;;;5027440;28;20033;-70
2024/01/25 07:39:48;;;;;;;37.08;34.97;;;;;;;;;;5029574;28;20533;-69
2024/01/25 07:42:13;;;;;;;34.00;31.63;;;;;;;;;;5031887;28;20750;-69
2024/01/25 07:44:39;;;;;;;34.88;32.50;;;;;;;;;;5033981;28;20387;-69
2024/01/25 07:47:04;;;;;;;33.38;31.65;;;;;;;;;;5033964;28;20102;-69
2024/01/25 07:49:30;;;;;;;34.88;33.08;;;;;;;;;;5028989;28;20365;-70
2024/01/25 07:51:58;;;;;;;35.17;33.08;;;;;;;;;;5033246;28;20427;-70
2024/01/25 07:54:24;;;;;;;31.73;29.95;;;;;;;;;;5028089;28;20486;-69
2024/01/25 07:56:49;;;;;;;32.08;30.30;;;;;;;;;;5034884;28;20036;-70
2024/01/25 07:59:15;;;;;;;31.67;29.88;;;;;;;;;;5032084;28;20041;-69
2024/01/25 08:01:40;;;;;;;29.02;27.42;;;;;;;;;;5033023;28;20033;-69
2024/01/25 08:04:05;;;;;;;28.85;27.25;;;;;;;;;;5032220;28;20170;-69
2024/01/25 08:06:31;;;;;;;30.73;28.40;;;;;;;;;;5032447;28;20038;-69
2024/01/25 08:08:56;;;;;;;29.40;27.58;;;;;;;;;;5031816;28;20049;-69
2024/01/25 08:11:22;;;;;;;29.52;26.75;;;;;;;;;;5012885;28;20030;-69
2024/01/25 08:13:48;;;;;;;24.63;23.33;;;;;;;;;;5033050;28;20029;-69
2024/01/25 08:16:13;;;;;;;25.42;23.85;;;;;;;;;;5031120;28;20048;-70
2024/01/25 08:18:40;;;;;;;27.35;24.83;;;;;;;;;;5032306;28;20038;-69
2024/01/25 08:21:05;;;;;;;25.92;24.13;;;;;;;;;;5030545;28;20128;-69
2024/01/25 08:23:31;;;;;;;23.58;22.08;;;;;;;;;;5030223;28;20144;-69
2024/01/25 08:25:56;;;;;;;24.95;23.60;;;;;;;;;;5032839;28;20029;-69
2024/01/25 08:28:21;;;;;;;26.17;24.63;;;;;;;;;;5031447;28;20036;-69
2024/01/25 08:30:47;;;;;;;23.70;22.30;;;;;;;;;;5033197;28;20033;-69
2024/01/25 08:33:13;;;;;;;25.02;23.23;;;;;;;;;;5029686;28;20047;-69
2024/01/25 08:35:40;;;;;;;24.70;23.20;;;;;;;;;;5030578;28;20608;-69
2024/01/25 08:38:06;;;;;;;23.42;22.02;;;;;;;;;;5033813;28;20057;-69
2024/01/25 08:40:32;;;;;;;24.98;23.50;;;;;;;;;;5006614;28;20030;-69
2024/01/25 08:42:57;;;;;;;24.83;23.52;;;;;;;;;;5033883;28;20035;-69
2024/01/25 08:45:23;;;;;;;25.10;23.40;;;;;;;;;;5030681;28;20364;-69
2024/01/25 08:47:49;;;;;;;26.92;25.33;;;;;;;;;;5029322;28;20619;-69
2024/01/25 08:50:15;;;;;;;22.42;21.05;;;;;;;;;;5030608;28;20029;-69
2024/01/25 08:52:40;;;;;;;25.25;23.50;;;;;;;;;;5033297;28;20413;-69
2024/01/25 08:55:07;;;;;;;23.63;22.35;;;;;;;;;;5031671;28;20112;-69
2024/01/25 08:57:32;;;;;;;25.95;23.85;;;;;;;;;;5035167;28;20041;-69
2024/01/25 08:59:58;;;;;;;25.17;23.77;;;;;;;;;;5035848;28;20099;-70
2024/01/25 09:02:26;;;;;;;26.45;24.73;;;;;;;;;;5034435;28;20043;-69
2024/01/25 09:04:53;;;;;;;25.25;23.50;;;;;;;;;;5033884;28;20072;-69
2024/01/25 09:07:19;;;;;;;26.83;25.42;;;;;;;;;;5034891;28;20052;-69
2024/01/25 09:09:44;;;;;;;26.75;24.92;;;;;;;;;;5034549;28;20033;-70
2024/01/25 09:12:11;;;;;;;28.27;25.85;;;;;;;;;;5036891;28;20033;-70
2024/01/25 09:14:37;;;;;;;24.63;23.33;;;;;;;;;;5036499;28;20061;-70
2024/01/25 09:17:02;;;;;;;27.50;26.00;;;;;;;;;;5036107;28;20063;-69
2024/01/25 09:19:27;;;;;;;27.98;25.60;;;;;;;;;;5031533;28;20041;-69
2024/01/25 09:21:53;;;;;;;26.63;25.13;;;;;;;;;;5036768;28;20033;-69
2024/01/25 09:24:19;;;;;;;28.60;26.73;;;;;;;;;;5032822;28;20151;-70
2024/01/25 09:26:44;;;;;;;31.15;29.48;;;;;;;;;;5033900;28;20111;-69
2024/01/25 09:29:10;;;;;;;31.40;29.70;;;;;;;;;;5037808;28;20104;-69
2024/01/25 09:31:35;;;;;;;31.40;29.70;;;;;;;;;;5032622;28;20118;-69
2024/01/25 09:34:00;;;;;;;30.95;28.92;;;;;;;;;;5032847;28;20399;-70
2024/01/25 09:36:26;;;;;;;32.22;30.45;;;;;;;;;;5035174;28;20041;-69
2024/01/25 09:38:51;;;;;;;33.00;31.15;;;;;;;;;;5035748;28;20024;-69
2024/01/25 09:41:17;;;;;;;33.58;31.63;;;;;;;;;;5034270;28;20037;-70
2024/01/25 09:43:43;;;;;;;34.20;32.40;;;;;;;;;;5030716;28;20043;-70
2024/01/25 09:46:13;;;;;;;33.28;31.27;;;;;;;;;;5032752;28;20451;-70
2024/01/25 09:48:40;;;;;;;34.25;32.33;;;;;;;;;;5035902;28;20076;-70
2024/01/25 09:51:05;;;;;;;32.35;30.65;;;;;;;;;;5034126;28;20041;-70
2024/01/25 09:53:33;;;;;;;34.00;31.83;;;;;;;;;;5032372;28;20055;-70
2024/01/25 09:56:09;;;;;;;34.22;32.30;;;;;;;;;;5033604;28;20136;-70
2024/01/25 09:58:41;;;;;;;33.45;31.45;;;;;;;;;;5032828;28;20037;-70
2024/01/25 10:01:15;;;;;;;33.00;31.25;;;;;;;;;;5030870;28;20037;-70
2024/01/25 10:03:44;;;;;;;34.42;32.60;;;;;;;;;;5033785;28;20037;-70
2024/01/25 10:06:10;;;;;;;33.00;31.23;;;;;;;;;;5033573;28;20040;-69
2024/01/25 10:08:36;;;;;;;37.10;34.45;;;;;;;;;;5030207;28;20493;-69
2024/01/25 10:11:02;;;;;;;35.90;33.13;;;;;;;;;;5033775;28;20048;-70
2024/01/25 10:13:28;;;;;;;36.60;34.30;;;;;;;;;;5033279;28;20052;-69
2024/01/25 10:15:54;;;;;;;35.22;33.42;;;;;;;;;;5032119;28;20100;-70
2024/01/25 10:18:20;;;;;;;35.30;33.17;;;;;;;;;;5034521;28;20025;-69
2024/01/25 10:20:45;;;;;;;39.03;36.60;;;;;;;;;;5033052;28;20094;-70
2024/01/25 10:23:10;;;;;;;39.00;35.63;;;;;;;;;;5031438;28;20123;-71
2024/01/25 10:25:36;;;;;;;37.80;35.80;;;;;;;;;;5036663;28;20611;-70
2024/01/25 10:28:05;;;;;;;37.40;35.35;;;;;;;;;;5034943;28;20029;-70
2024/01/25 10:30:35;;;;;;;37.88;34.40;;;;;;;;;;5033860;28;20044;-70
2024/01/25 10:33:01;;;;;;;38.28;36.13;;;;;;;;;;5026505;28;20034;-70
2024/01/25 10:35:27;;;;;;;37.08;35.08;;;;;;;;;;5033737;28;20362;-71
2024/01/25 10:37:53;;;;;;;36.90;34.78;;;;;;;;;;5031102;28;20052;-70
2024/01/25 10:40:20;;;;;;;37.67;35.70;;;;;;;;;;5031031;28;20028;-71
2024/01/25 10:42:45;;;;;;;37.90;35.58;;;;;;;;;;5034165;28;20530;-71
2024/01/25 10:45:11;;;;;;;38.58;36.53;;;;;;;;;;5034749;28;20108;-71
2024/01/25 10:47:37;;;;;;;38.67;36.40;;;;;;;;;;5035905;28;20037;-71
2024/01/25 10:50:05;;;;;;;35.08;33.17;;;;;;;;;;5034429;28;20120;-70
2024/01/25 10:52:31;;;;;;;32.72;30.90;;;;;;;;;;5033194;28;20053;-71
2024/01/25 10:54:57;;;;;;;35.05;33.03;;;;;;;;;;5026582;28;20068;-71
2024/01/25 10:57:23;;;;;;;31.90;30.20;;;;;;;;;;5033907;28;20044;-71
2024/01/25 10:59:48;;;;;;;33.45;31.55;;;;;;;;;;5032550;28;20034;-70
2024/01/25 11:02:14;;;;;;;35.17;32.70;;;;;;;;;;5034427;28;20444;-71
2024/01/25 11:04:39;;;;;;;32.60;30.73;;;;;;;;;;5034164;28;21042;-71
2024/01/25 11:07:08;;;;;;;34.05;32.05;;;;;;;;;;5032492;28;20115;-71
2024/01/25 11:09:36;;;;;;;35.40;33.45;;;;;;;;;;5032788;28;20036;-70
2024/01/25 11:12:11;;;;;;;33.70;31.63;;;;;;;;;;5030593;28;20278;-70
2024/01/25 11:14:37;;;;;;;35.58;33.58;;;;;;;;;;5032736;28;20041;-71
2024/01/25 11:17:23;;;;;;;35.92;33.92;;;;;;;;;;5032818;28;20102;-58
2024/01/25 11:19:52;;;;;;;36.13;34.10;;;;;;;;;;5031206;28;20574;-58
2024/01/25 11:22:18;;;;;;;36.58;34.40;;;;;;;;;;5030753;28;20044;-58
2024/01/25 11:24:43;;;;;;;38.65;36.30;;;;;;;;;;5029443;28;20041;-59
2024/01/25 11:27:10;;;;;;;37.95;35.03;;;;;;;;;;5031104;28;20071;-59
2024/01/25 11:29:35;;;;;;;39.65;37.25;;;;;;;;;;5030888;28;20348;-58
2024/01/25 11:32:04;;;;;;;38.50;36.47;;;;;;;;;;5029343;28;20033;-58
2024/01/25 11:34:30;;;;;;;40.33;37.80;;;;;;;;;;5031530;28;20085;-58
2024/01/25 11:36:57;;;;;;;36.13;34.13;;;;;;;;;;5029817;28;20040;-58
2024/01/25 11:39:23;;;;;;;40.47;38.30;;;;;;;;;;5030970;28;20025;-58
2024/01/25 11:41:51;;;;;;;38.75;36.65;;;;;;;;;;5029828;28;20032;-59
2024/01/25 11:44:16;;;;;;;36.10;34.20;;;;;;;;;;5031117;28;20094;-58
2024/01/25 11:46:42;;;;;;;36.17;34.28;;;;;;;;;;5029646;28;20040;-57
2024/01/25 11:49:07;;;;;;;36.50;34.58;;;;;;;;;;5028621;28;20164;-58
2024/01/25 11:51:32;;;;;;;37.15;35.05;;;;;;;;;;5034712;28;20025;-59
2024/01/25 11:53:58;;;;;;;37.97;36.00;;;;;;;;;;5022397;28;20446;-59
2024/01/25 11:56:29;;;;;;;36.17;33.80;;;;;;;;;;5031739;28;20028;-57
2024/01/25 11:58:56;;;;;;;;;;;;;;;;;;5028633;28;20040;-57
2024/01/25 12:01:23;;;;;;;32.53;30.48;;;;;;;;;;5032211;28;19917;-57
2024/01/25 12:03:48;;;;;;;38.25;36.05;;;;;;;;;;5026719;28;20364;-56
2024/01/25 12:06:13;;;;;;;34.30;32.50;;;;;;;;;;5033107;28;20039;-57
2024/01/25 12:08:39;;;;;;;36.08;33.78;;;;;;;;;;5029244;28;20068;-58
2024/01/25 12:11:06;;;;;;;40.72;36.88;;;;;;;;;;5030104;28;20061;-58
2024/01/25 12:13:42;;;;;;;40.58;37.67;;;;;;;;;;5033229;28;20034;-59
2024/01/25 12:16:09;;;;;;;34.55;32.58;;;;;;;;;;5032681;28;20113;-59
2024/01/25 12:18:35;;;;;;;31.58;29.88;;;;;;;;;;5029507;28;20044;-59
2024/01/25 12:21:02;;;;;;;27.52;25.75;;;;;;;;;;5030332;28;20026;-59
2024/01/25 12:23:34;;;;;;;24.02;22.42;;;;;;;;;;5032812;28;20041;-58
2024/01/25 12:26:01;;;;;;;25.35;23.88;;;;;;;;;;5029610;28;20033;-59
2024/01/25 12:28:28;;;;;;;26.92;25.23;;;;;;;;;;5040237;28;20071;-58
2024/01/25 12:30:53;;;;;;;26.40;24.80;;;;;;;;;;5033665;28;20369;-59
2024/01/25 12:33:19;;;;;;;31.05;28.15;;;;;;;;;;5036738;28;20037;-58
2024/01/25 12:35:44;;;;;;;25.50;24.08;;;;;;;;;;5038144;28;20502;-58
2024/01/25 12:38:09;;;;;;;24.27;22.95;;;;;;;;;;5036238;28;20104;-59
2024/01/25 12:40:35;;;;;;;23.83;22.38;;;;;;;;;;5032580;28;20049;-57
2024/01/25 12:43:00;;;;;;;23.13;21.40;;;;;;;;;;5034899;28;20036;-59
2024/01/25 12:45:25;;;;;;;23.05;21.75;;;;;;;;;;5035554;28;20041;-59
2024/01/25 12:47:51;;;;;;;24.42;22.65;;;;;;;;;;5032370;28;20141;-58
2024/01/25 12:50:16;;;;;;;20.80;19.60;;;;;;;;;;5032321;28;20037;-61
2024/01/25 12:52:41;;;;;;;22.05;20.77;;;;;;;;;;5033602;28;20045;-59
2024/01/25 12:55:07;;;;;;;25.02;23.45;;;;;;;;;;5028815;28;20053;-58
2024/01/25 12:57:32;;;;;;;23.27;21.67;;;;;;;;;;5032391;28;20043;-59
2024/01/25 12:59:59;;;;;;;22.75;21.45;;;;;;;;;;5032965;28;20112;-56
2024/01/25 13:02:24;;;;;;;23.00;21.80;;;;;;;;;;5033055;28;20057;-58
2024/01/25 13:04:50;;;;;;;23.65;22.17;;;;;;;;;;5033302;28;20076;-56
2024/01/25 13:07:15;;;;;;;22.35;20.95;;;;;;;;;;5035316;28;20029;-56
2024/01/25 13:09:41;;;;;;;22.05;20.23;;;;;;;;;;5036532;28;20083;-57
2024/01/25 13:12:06;;;;;;;24.58;22.88;;;;;;;;;;5033167;28;20038;-56
2024/01/25 13:14:33;;;;;;;21.92;20.52;;;;;;;;;;5039475;28;20040;-57
2024/01/25 13:16:58;;;;;;;22.35;21.05;;;;;;;;;;5032586;28;20036;-57
2024/01/25 13:19:24;;;;;;;23.25;21.85;;;;;;;;;;5035834;28;20123;-56
2024/01/25 13:21:49;;;;;;;23.40;21.60;;;;;;;;;;5034407;28;20443;-57
2024/01/25 13:24:14;;;;;;;24.70;22.73;;;;;;;;;;5033413;28;20068;-56
2024/01/25 13:26:40;;;;;;;21.25;20.13;;;;;;;;;;5036288;28;20044;-56
2024/01/25 13:29:05;;;;;;;21.77;19.88;;;;;;;;;;5035437;28;20041;-56
2024/01/25 13:31:30;;;;;;;23.02;21.67;;;;;;;;;;5034753;28;20033;-56
2024/01/25 13:33:56;;;;;;;20.92;19.73;;;;;;;;;;5031951;28;20140;-57
2024/01/25 13:36:21;;;;;;;23.35;20.98;;;;;;;;;;5031719;28;20068;-57
2024/01/25 13:38:46;;;;;;;23.15;21.38;;;;;;;;;;5030955;28;20040;-58
2024/01/25 13:41:11;;;;;;;22.27;20.88;;;;;;;;;;5037805;28;20437;-57
2024/01/25 13:43:37;;;;;;;23.15;21.85;;;;;;;;;;5034129;28;20080;-56
2024/01/25 13:46:02;;;;;;;23.77;21.95;;;;;;;;;;5033750;28;20104;-57
2024/01/25 13:48:27;;;;;;;25.30;19.30;;;;;;;;;;5032160;28;20398;-58
2024/01/25 13:50:53;;;;;;;22.15;20.95;;;;;;;;;;5034082;28;20437;-57
2024/01/25 13:53:18;;;;;;;20.17;19.00;;;;;;;;;;5036023;28;20055;-57
2024/01/25 13:55:44;;;;;;;22.55;21.13;;;;;;;;;;5032267;28;20109;-57
2024/01/25 13:58:10;;;;;;;21.52;20.33;;;;;;;;;;5032063;28;20470;-58
2024/01/25 14:00:35;;;;;;;21.55;20.20;;;;;;;;;;5031072;28;20071;-58
2024/01/25 14:03:01;;;;;;;23.95;22.25;;;;;;;;;;5029400;28;20065;-58
2024/01/25 14:05:26;;;;;;;22.67;21.25;;;;;;;;;;5035061;28;20043;-56
2024/01/25 14:07:51;;;;;;;22.58;21.33;;;;;;;;;;5032589;28;20021;-57
2024/01/25 14:10:17;;;;;;;24.88;22.60;;;;;;;;;;5030956;28;20033;-57